Time;durP1;ratioP1;P1;durP2;ratioP2;P2;SDS_P1;SDS_P2;PMS_P1;PMS_P2;Temp;Humidity;BMP_temperature;BMP_pressure;BME280_temperature;BME280_humidity;BME280_pressure;Samples;Min_cycle;Max_cycle;Signal;HPM_P1;HPM_P2
2022/02/26 00:00:17;;;;;;;36.93;23.27;;;0.90;99.90;;;;;;5008735;28;20479;-72
2022/02/26 00:02:45;;;;;;;24.17;21.97;;;1.00;99.90;;;;;;5033119;28;20479;-70
2022/02/26 00:05:12;;;;;;;23.63;21.57;;;1.10;99.90;;;;;;5032270;28;20499;-71
2022/02/26 00:07:39;;;;;;;24.70;22.10;;;1.00;99.90;;;;;;5034909;28;20973;-71
2022/02/26 00:10:07;;;;;;;24.50;22.17;;;1.00;99.90;;;;;;5032698;28;20470;-72
2022/02/26 00:12:34;;;;;;;26.27;22.17;;;1.00;99.90;;;;;;5037391;28;20455;-71
2022/02/26 00:15:00;;;;;;;28.60;22.20;;;1.00;99.90;;;;;;5034886;28;20500;-71
2022/02/26 00:17:27;;;;;;;27.93;21.93;;;1.00;99.90;;;;;;5041083;28;20467;-73
2022/02/26 00:19:55;;;;;;;33.17;20.67;;;1.00;99.90;;;;;;5038295;28;20471;-72
2022/02/26 00:22:22;;;;;;;22.80;20.30;;;0.90;99.90;;;;;;5040428;28;20514;-71
2022/02/26 00:24:49;;;;;;;30.77;21.37;;;0.70;99.90;;;;;;5042204;28;20525;-71
2022/02/26 00:27:16;;;;;;;25.10;20.80;;;0.60;99.90;;;;;;5041109;28;20482;-73
2022/02/26 00:29:43;;;;;;;22.63;20.63;;;0.60;99.90;;;;;;5036221;28;20478;-72
2022/02/26 00:32:10;;;;;;;26.00;21.30;;;0.50;99.90;;;;;;5036088;28;20470;-73
2022/02/26 00:34:37;;;;;;;27.13;20.70;;;0.50;99.90;;;;;;5040775;28;20452;-72
2022/02/26 00:37:05;;;;;;;31.63;22.33;;;0.60;99.90;;;;;;5041924;28;20463;-73
2022/02/26 00:39:39;;;;;;;22.77;20.40;;;0.70;99.90;;;;;;5040532;28;21032;-74
2022/02/26 00:42:06;;;;;;;26.30;23.80;;;0.70;99.90;;;;;;5040308;28;20531;-72
2022/02/26 00:44:32;;;;;;;22.60;20.60;;;0.70;99.90;;;;;;5036829;28;20855;-72
2022/02/26 00:47:00;;;;;;;25.03;22.13;;;0.70;99.90;;;;;;5038463;28;20463;-72
2022/02/26 00:52:14;;;;;;;22.33;19.93;;;0.70;99.90;;;;;;5031879;28;20636;-73
2022/02/26 00:54:41;;;;;;;25.17;21.27;;;0.70;99.90;;;;;;5043450;28;20467;-73
2022/02/26 00:57:08;;;;;;;23.50;21.03;;;0.70;99.90;;;;;;5031651;28;20460;-73
2022/02/26 00:59:34;;;;;;;36.90;22.90;;;0.80;99.90;;;;;;5040281;28;20973;-72
2022/02/26 01:02:02;;;;;;;28.23;22.40;;;0.70;99.90;;;;;;5041420;28;20478;-73
2022/02/26 01:04:29;;;;;;;37.77;23.10;;;0.60;99.90;;;;;;5036636;28;20497;-71
2022/02/26 01:06:56;;;;;;;24.33;21.97;;;0.70;99.90;;;;;;5035916;28;20471;-73
2022/02/26 01:09:24;;;;;;;22.97;20.70;;;0.80;99.90;;;;;;5033187;28;20463;-73
2022/02/26 01:11:52;;;;;;;23.93;21.33;;;0.80;99.90;;;;;;5041396;28;20824;-73
2022/02/26 01:14:19;;;;;;;23.43;21.07;;;0.80;99.90;;;;;;5032132;28;20468;-71
2022/02/26 01:16:47;;;;;;;24.63;20.83;;;0.60;99.90;;;;;;5040432;28;20474;-72
2022/02/26 01:19:13;;;;;;;27.70;21.10;;;0.50;99.90;;;;;;5041078;28;20467;-73
2022/02/26 01:21:40;;;;;;;24.67;21.33;;;0.60;99.90;;;;;;5047426;28;20481;-71
2022/02/26 01:24:07;;;;;;;22.97;20.63;;;0.70;99.90;;;;;;5043893;28;20493;-72
2022/02/26 01:26:36;;;;;;;26.03;20.33;;;0.80;99.90;;;;;;5041892;28;20483;-73
2022/02/26 01:29:04;;;;;;;35.60;22.37;;;0.80;99.90;;;;;;5037570;28;20453;-71
2022/02/26 01:31:32;;;;;;;29.63;21.20;;;0.80;99.90;;;;;;5045011;28;20889;-72
2022/02/26 01:33:59;;;;;;;30.17;20.27;;;0.70;99.90;;;;;;5036237;28;20471;-72
2022/02/26 01:36:26;;;;;;;24.47;21.77;;;0.70;99.90;;;;;;5039822;28;20571;-73
2022/02/26 01:38:53;;;;;;;30.17;21.93;;;0.70;99.90;;;;;;5043840;28;20539;-72
2022/02/26 01:41:20;;;;;;;23.77;21.23;;;0.60;99.90;;;;;;5042999;28;20467;-72
2022/02/26 01:43:49;;;;;;;23.97;21.17;;;0.60;99.90;;;;;;5040783;28;20472;-71
2022/02/26 01:46:15;;;;;;;29.77;21.07;;;0.40;99.90;;;;;;5043180;28;20468;-72
2022/02/26 01:48:43;;;;;;;22.67;20.40;;;0.30;99.90;;;;;;5042753;28;20491;-71
2022/02/26 01:51:11;;;;;;;30.73;21.70;;;0.20;99.90;;;;;;5042963;28;21276;-72
2022/02/26 01:53:39;;;;;;;24.30;21.50;;;0.10;99.90;;;;;;5036562;28;20465;-73
2022/02/26 01:56:07;;;;;;;33.60;21.20;;;0.10;99.90;;;;;;5038933;28;20468;-71
2022/02/26 01:58:34;;;;;;;34.50;22.73;;;0.10;99.90;;;;;;5042201;28;20461;-71
2022/02/26 02:01:04;;;;;;;38.23;22.87;;;0.20;99.90;;;;;;5042254;28;20467;-72
2022/02/26 02:03:31;;;;;;;27.97;22.07;;;0.30;99.90;;;;;;5044598;28;20467;-72
2022/02/26 02:05:59;;;;;;;40.23;23.60;;;0.40;99.90;;;;;;5045608;28;20533;-72
2022/02/26 02:08:26;;;;;;;29.37;22.00;;;0.40;99.90;;;;;;5040909;28;20461;-72
2022/02/26 02:10:54;;;;;;;24.67;22.40;;;0.50;99.90;;;;;;5039900;28;20459;-71
2022/02/26 02:13:23;;;;;;;38.33;23.27;;;0.50;99.90;;;;;;5043946;28;20520;-72
2022/02/26 02:15:53;;;;;;;31.17;23.53;;;0.40;99.90;;;;;;5039718;28;20460;-72
2022/02/26 02:18:21;;;;;;;49.30;24.50;;;0.40;99.90;;;;;;5042216;28;20485;-72
2022/02/26 02:20:48;;;;;;;33.17;23.03;;;0.40;99.90;;;;;;5041478;28;20462;-72
2022/02/26 02:23:17;;;;;;;37.00;23.90;;;0.50;99.90;;;;;;5042571;28;20538;-72
2022/02/26 02:25:45;;;;;;;28.63;23.43;;;0.50;99.90;;;;;;5039293;28;20503;-72
2022/02/26 02:28:12;;;;;;;27.03;23.40;;;0.50;99.90;;;;;;5031953;28;20475;-72
2022/02/26 02:30:40;;;;;;;32.57;22.97;;;0.50;99.90;;;;;;5040481;28;20495;-72
2022/02/26 02:33:09;;;;;;;40.13;24.50;;;0.50;99.90;;;;;;5039792;28;20550;-72
2022/02/26 02:35:38;;;;;;;29.30;23.20;;;0.40;99.90;;;;;;5039114;28;20547;-72
2022/02/26 02:38:07;;;;;;;26.83;22.03;;;0.30;99.90;;;;;;5039793;28;20540;-72
2022/02/26 02:40:36;;;;;;;26.40;23.57;;;0.20;99.90;;;;;;5040765;28;20533;-72
2022/02/26 02:43:04;;;;;;;30.07;22.50;;;0.00;99.90;;;;;;5041243;28;20456;-72
2022/02/26 02:45:31;;;;;;;27.73;23.03;;;-0.10;99.90;;;;;;5036171;28;21034;-72
2022/02/26 02:47:58;;;;;;;41.13;24.37;;;-0.10;99.90;;;;;;5033902;28;20516;-72
2022/02/26 02:50:26;;;;;;;29.13;24.40;;;0.00;99.90;;;;;;5035807;28;20455;-72
2022/02/26 02:52:53;;;;;;;30.77;24.80;;;0.10;99.90;;;;;;5038296;28;20464;-72
2022/02/26 02:55:21;;;;;;;27.90;24.93;;;0.20;99.90;;;;;;5041900;28;20975;-72
2022/02/26 02:57:50;;;;;;;37.73;24.97;;;0.20;99.90;;;;;;5040158;28;20461;-72
2022/02/26 03:00:19;;;;;;;27.67;24.10;;;0.10;99.90;;;;;;5037237;28;20464;-72
2022/02/26 03:02:47;;;;;;;27.70;25.03;;;0.00;99.90;;;;;;5039753;28;20449;-72
2022/02/26 03:05:16;;;;;;;35.57;24.53;;;0.00;99.90;;;;;;5039869;28;20489;-72
2022/02/26 03:07:43;;;;;;;26.87;24.03;;;0.00;99.90;;;;;;5037295;28;20462;-73
2022/02/26 03:10:10;;;;;;;29.03;24.33;;;0.00;99.90;;;;;;5034857;28;22794;-72
2022/02/26 03:12:38;;;;;;;30.47;26.43;;;0.00;99.90;;;;;;5037587;28;20988;-72
2022/02/26 03:15:08;;;;;;;30.93;27.60;;;0.00;99.90;;;;;;5044500;28;20473;-72
2022/02/26 03:17:35;;;;;;;40.77;26.73;;;0.10;99.90;;;;;;5040668;28;20475;-72
2022/02/26 03:20:03;;;;;;;28.20;25.40;;;0.20;99.90;;;;;;5038287;28;20962;-72
2022/02/26 03:22:31;;;;;;;29.70;24.87;;;0.30;99.90;;;;;;5032882;28;20526;-72
2022/02/26 03:24:57;;;;;;;30.17;26.03;;;0.20;99.90;;;;;;5041428;28;20510;-72
2022/02/26 03:27:24;;;;;;;27.33;23.10;;;0.10;99.90;;;;;;5042287;28;20832;-72
2022/02/26 03:29:51;;;;;;;27.10;24.70;;;0.00;99.90;;;;;;5040188;28;20469;-72
2022/02/26 03:32:20;;;;;;;34.73;24.97;;;0.00;99.90;;;;;;5032206;28;20478;-72
2022/02/26 03:34:47;;;;;;;35.97;25.07;;;-0.10;99.90;;;;;;5038880;28;20844;-72
2022/02/26 03:37:14;;;;;;;38.27;24.57;;;0.00;99.90;;;;;;5037349;28;20468;-73
2022/02/26 03:39:41;;;;;;;27.57;24.20;;;0.00;99.90;;;;;;5039163;28;20899;-73
2022/02/26 03:42:09;;;;;;;30.00;24.90;;;0.00;99.90;;;;;;5040976;28;20465;-74
2022/02/26 03:44:37;;;;;;;32.63;24.93;;;-0.10;99.90;;;;;;5036528;28;20461;-72
2022/02/26 03:47:05;;;;;;;28.27;24.77;;;-0.10;99.90;;;;;;5042576;28;20828;-72
2022/02/26 03:49:33;;;;;;;31.90;25.30;;;0.00;99.90;;;;;;5041701;28;20789;-73
2022/02/26 03:52:00;;;;;;;34.87;26.50;;;-0.10;99.90;;;;;;5036607;28;20916;-72
2022/02/26 03:54:27;;;;;;;31.20;27.53;;;-0.10;99.90;;;;;;5038633;28;20489;-73
2022/02/26 03:56:55;;;;;;;31.23;26.97;;;0.00;99.90;;;;;;5038360;28;20462;-73
2022/02/26 03:59:22;;;;;;;34.60;25.73;;;0.00;99.90;;;;;;5042394;28;20808;-72
2022/02/26 04:01:50;;;;;;;37.23;25.57;;;0.00;99.90;;;;;;5040018;28;20463;-72
2022/02/26 04:04:17;;;;;;;33.73;25.53;;;0.00;99.90;;;;;;5039041;28;20877;-73
2022/02/26 04:06:45;;;;;;;28.57;25.70;;;0.00;99.90;;;;;;5034481;28;20505;-72
2022/02/26 04:09:12;;;;;;;35.67;26.73;;;0.00;99.90;;;;;;5035644;28;20980;-72
2022/02/26 04:11:39;;;;;;;26.83;24.40;;;0.00;99.90;;;;;;5043714;28;20455;-72
2022/02/26 04:14:06;;;;;;;45.20;26.50;;;0.00;99.90;;;;;;5043343;28;20475;-72
2022/02/26 04:16:34;;;;;;;36.30;24.90;;;0.00;99.90;;;;;;5038451;28;20482;-73
2022/02/26 04:19:02;;;;;;;28.53;24.80;;;-0.10;99.90;;;;;;5039099;28;20955;-73
2022/02/26 04:21:30;;;;;;;31.47;25.73;;;-0.20;99.90;;;;;;5035971;28;20487;-72
2022/02/26 04:23:59;;;;;;;32.00;24.60;;;-0.30;99.90;;;;;;5037638;28;20521;-72
2022/02/26 04:26:27;;;;;;;35.00;26.03;;;-0.40;99.90;;;;;;5042244;28;20519;-73
2022/02/26 04:28:55;;;;;;;30.30;23.50;;;-0.40;99.90;;;;;;5040619;28;20467;-73
2022/02/26 04:31:22;;;;;;;29.50;25.07;;;-0.50;99.90;;;;;;5037660;28;20462;-73
2022/02/26 04:33:50;;;;;;;29.97;24.90;;;-0.50;99.90;;;;;;5038610;28;20465;-72
2022/02/26 04:36:17;;;;;;;31.17;23.70;;;-0.50;99.90;;;;;;5034507;28;20990;-72
2022/02/26 04:38:45;;;;;;;29.00;22.90;;;-0.60;99.90;;;;;;5038407;28;20467;-72
2022/02/26 04:41:13;;;;;;;29.53;23.50;;;-0.60;99.90;;;;;;5039230;28;20511;-73
2022/02/26 04:43:43;;;;;;;30.07;23.40;;;-0.70;99.90;;;;;;5035883;28;20461;-72
2022/02/26 04:46:10;;;;;;;31.50;25.90;;;-0.80;99.90;;;;;;5034632;28;21091;-73
2022/02/26 04:48:37;;;;;;;28.40;24.40;;;-0.80;99.90;;;;;;5040877;28;20488;-72
2022/02/26 04:51:06;;;;;;;28.50;25.73;;;-0.80;99.90;;;;;;5042400;28;20459;-72
2022/02/26 04:53:33;;;;;;;26.80;23.20;;;-0.80;99.90;;;;;;5038544;28;20464;-73
2022/02/26 04:56:00;;;;;;;27.70;24.40;;;-0.90;99.90;;;;;;5041455;28;20461;-72
2022/02/26 04:58:29;;;;;;;47.07;24.70;;;-1.00;99.90;;;;;;5040570;28;20471;-73
2022/02/26 05:00:55;;;;;;;33.53;25.20;;;-1.00;99.90;;;;;;5042247;28;20974;-72
2022/02/26 05:03:23;;;;;;;25.53;23.13;;;-1.10;99.90;;;;;;5016903;28;20527;-73
2022/02/26 05:05:49;;;;;;;27.97;24.80;;;-1.10;99.90;;;;;;5013784;28;20490;-73
2022/02/26 05:08:17;;;;;;;29.90;24.80;;;-1.10;99.90;;;;;;5008365;28;20986;-74
2022/02/26 05:10:45;;;;;;;32.40;24.47;;;-1.20;99.90;;;;;;5008992;28;20469;-73
2022/02/26 05:13:12;;;;;;;27.93;25.13;;;-1.10;99.90;;;;;;5010687;28;20858;-73
2022/02/26 05:15:40;;;;;;;34.00;24.30;;;-1.10;99.90;;;;;;5011817;28;20468;-73
2022/02/26 05:18:08;;;;;;;27.50;24.70;;;-1.10;99.90;;;;;;5010567;28;21126;-74
2022/02/26 05:20:35;;;;;;;28.00;25.10;;;-1.00;99.90;;;;;;5009806;28;20491;-74
2022/02/26 05:23:02;;;;;;;27.93;25.33;;;-1.10;99.90;;;;;;5010513;28;20459;-74
2022/02/26 05:25:29;;;;;;;46.43;25.87;;;-1.20;99.90;;;;;;5010624;28;20874;-74
2022/02/26 05:27:56;;;;;;;60.83;26.60;;;-1.20;99.90;;;;;;5011047;28;20459;-75
2022/02/26 05:30:23;;;;;;;200.03;29.00;;;-1.20;99.90;;;;;;5012780;28;20554;-74
2022/02/26 05:32:51;;;;;;;30.43;24.20;;;-1.20;99.90;;;;;;5012045;28;20453;-74
2022/02/26 05:35:18;;;;;;;39.00;26.03;;;-1.30;99.90;;;;;;5010687;28;20470;-74
2022/02/26 05:37:45;;;;;;;124.07;27.87;;;-1.40;99.90;;;;;;5010035;28;20488;-74
2022/02/26 05:40:14;;;;;;;27.80;24.80;;;-1.40;99.90;;;;;;5011240;28;20478;-73
2022/02/26 05:42:41;;;;;;;28.80;23.47;;;-1.50;99.90;;;;;;5011361;28;20464;-73
2022/02/26 05:45:08;;;;;;;32.17;26.20;;;-1.50;99.90;;;;;;5009945;28;20466;-73
2022/02/26 05:47:35;;;;;;;27.70;24.70;;;-1.60;99.90;;;;;;5033608;28;20457;-73
2022/02/26 05:50:04;;;;;;;61.30;25.90;;;-1.60;99.90;;;;;;5011369;28;20477;-73
2022/02/26 05:52:31;;;;;;;28.73;24.47;;;-1.70;99.90;;;;;;5010939;28;20500;-72
2022/02/26 05:54:58;;;;;;;36.67;25.70;;;-1.70;99.90;;;;;;5009489;28;20498;-73
2022/02/26 05:57:24;;;;;;;31.87;26.33;;;-1.70;99.90;;;;;;5009013;28;20947;-73
2022/02/26 05:59:51;;;;;;;34.33;26.90;;;-1.70;99.90;;;;;;5009797;28;20980;-73
2022/02/26 06:02:18;;;;;;;28.57;24.57;;;-1.70;99.90;;;;;;5009498;28;20476;-73
2022/02/26 06:04:45;;;;;;;28.83;24.20;;;-1.70;99.90;;;;;;5011279;28;22518;-73
2022/02/26 06:07:13;;;;;;;32.57;26.20;;;-1.70;99.90;;;;;;5010144;28;21103;-73
2022/02/26 06:09:40;;;;;;;34.17;25.97;;;-1.70;99.90;;;;;;5007477;28;20453;-72
2022/02/26 06:12:07;;;;;;;32.47;25.27;;;-1.70;99.90;;;;;;5009730;28;20474;-72
2022/02/26 06:14:34;;;;;;;30.57;25.90;;;-1.70;99.90;;;;;;5041055;28;20783;-72
2022/02/26 06:17:00;;;;;;;31.00;25.97;;;-1.60;99.90;;;;;;5039033;28;21671;-74
2022/02/26 06:19:27;;;;;;;28.33;25.43;;;-1.50;99.90;;;;;;5017706;28;20486;-73
2022/02/26 06:21:54;;;;;;;28.70;25.70;;;-1.50;99.90;;;;;;5010367;28;21328;-72
2022/02/26 06:24:22;;;;;;;44.90;25.10;;;-1.40;99.90;;;;;;5009151;28;20468;-73
2022/02/26 06:26:49;;;;;;;33.87;25.10;;;-1.40;99.90;;;;;;5010117;28;20495;-72
2022/02/26 06:29:16;;;;;;;34.80;24.53;;;-1.40;99.90;;;;;;5010339;28;20457;-73
2022/02/26 06:31:43;;;;;;;38.33;26.60;;;-1.40;99.90;;;;;;5010186;28;20467;-72
2022/02/26 06:34:10;;;;;;;33.57;26.27;;;-1.50;99.90;;;;;;5010600;28;20471;-73
2022/02/26 06:36:38;;;;;;;30.00;25.90;;;-1.40;99.90;;;;;;5007936;28;20848;-72
2022/02/26 06:39:06;;;;;;;38.40;26.13;;;-1.50;99.90;;;;;;5008915;28;20466;-73
2022/02/26 06:41:34;;;;;;;36.90;28.53;;;-1.40;99.90;;;;;;5009689;28;21076;-73
2022/02/26 06:44:01;;;;;;;36.07;27.87;;;-1.30;99.90;;;;;;5043077;28;20462;-73
2022/02/26 06:46:28;;;;;;;32.50;26.23;;;-1.30;99.90;;;;;;5040333;28;20841;-72
2022/02/26 06:48:55;;;;;;;33.67;26.80;;;-1.40;99.90;;;;;;5035599;28;20493;-72
2022/02/26 06:51:22;;;;;;;29.57;25.70;;;-1.40;99.90;;;;;;5015596;28;20477;-73
2022/02/26 06:53:49;;;;;;;30.97;26.17;;;-1.50;99.90;;;;;;5008313;28;20470;-73
2022/02/26 06:56:15;;;;;;;40.00;28.37;;;-1.50;99.90;;;;;;5007822;28;20480;-72
2022/02/26 06:58:44;;;;;;;36.13;29.10;;;-1.50;99.90;;;;;;5008410;28;20479;-72
2022/02/26 07:01:11;;;;;;;41.30;28.80;;;-1.40;99.90;;;;;;5008199;28;20466;-73
2022/02/26 07:03:37;;;;;;;32.30;28.53;;;-1.30;99.90;;;;;;5006003;28;20945;-73
2022/02/26 07:06:04;;;;;;;34.40;28.80;;;-1.30;99.90;;;;;;5007620;28;20846;-73
2022/02/26 07:08:32;;;;;;;31.63;28.27;;;-1.20;99.90;;;;;;5006624;28;20474;-72
2022/02/26 07:10:59;;;;;;;35.57;30.27;;;-1.20;99.90;;;;;;5006028;28;20482;-73
2022/02/26 07:13:26;;;;;;;32.37;29.07;;;-1.20;99.90;;;;;;5006992;28;20609;-72
2022/02/26 07:15:55;;;;;;;38.10;28.73;;;-1.20;99.90;;;;;;5008589;28;20487;-72
2022/02/26 07:18:22;;;;;;;35.23;30.40;;;-1.10;99.90;;;;;;5006811;28;20978;-73
2022/02/26 07:20:49;;;;;;;36.27;30.20;;;-1.10;99.90;;;;;;5033198;28;20488;-72
2022/02/26 07:23:16;;;;;;;33.60;29.87;;;-1.10;99.90;;;;;;5035483;28;20549;-72
2022/02/26 07:25:45;;;;;;;48.63;33.80;;;-1.10;99.90;;;;;;5041566;28;20469;-73
2022/02/26 07:28:12;;;;;;;41.17;33.50;;;-1.00;99.90;;;;;;5018756;28;20561;-72
2022/02/26 07:30:39;;;;;;;40.33;30.20;;;-0.90;99.90;;;;;;5006286;28;20467;-73
2022/02/26 07:33:08;;;;;;;45.43;29.13;;;-0.80;99.90;;;;;;5007870;28;20527;-72
2022/02/26 07:35:36;;;;;;;39.40;29.17;;;-0.70;99.90;;;;;;5006253;28;20552;-72
2022/02/26 07:38:03;;;;;;;34.73;28.23;;;-0.70;99.90;;;;;;5005913;28;21204;-72
2022/02/26 07:40:30;;;;;;;39.87;29.67;;;-0.70;99.90;;;;;;5006028;28;21103;-72
2022/02/26 07:42:57;;;;;;;43.20;32.47;;;-0.60;99.90;;;;;;5005959;28;20971;-72
2022/02/26 07:45:24;;;;;;;35.83;31.97;;;-0.50;99.90;;;;;;5007258;28;20465;-72
2022/02/26 07:47:50;;;;;;;51.33;33.23;;;-0.40;99.90;;;;;;5006015;28;20504;-72
2022/02/26 07:50:18;;;;;;;36.83;30.63;;;-0.30;99.90;;;;;;5005881;28;20473;-72
2022/02/26 07:52:46;;;;;;;34.73;30.90;;;-0.20;99.90;;;;;;5007081;28;20464;-72
2022/02/26 07:55:13;;;;;;;36.53;32.43;;;-0.10;99.90;;;;;;5007790;28;20967;-73
2022/02/26 07:57:40;;;;;;;57.03;33.93;;;0.10;99.90;;;;;;5008163;28;20459;-72
2022/02/26 08:00:08;;;;;;;43.50;34.23;;;0.30;99.90;;;;;;5007178;28;20467;-73
2022/02/26 08:02:35;;;;;;;44.63;37.07;;;0.50;99.90;;;;;;5006306;28;20503;-72
2022/02/26 08:05:01;;;;;;;46.50;39.07;;;0.60;99.90;;;;;;5007729;28;20472;-71
2022/02/26 08:07:30;;;;;;;46.83;40.00;;;0.80;99.90;;;;;;5007215;28;20571;-71
2022/02/26 08:09:56;;;;;;;55.50;43.40;;;1.00;99.90;;;;;;5007056;28;20911;-71
2022/02/26 08:12:23;;;;;;;50.43;40.60;;;1.10;99.90;;;;;;5007221;28;20489;-70
2022/02/26 08:14:51;;;;;;;51.57;43.10;;;1.10;99.90;;;;;;5007661;28;20582;-70
2022/02/26 08:17:17;;;;;;;46.03;40.30;;;1.30;99.90;;;;;;5006970;28;20614;-71
2022/02/26 08:19:44;;;;;;;47.23;41.33;;;1.40;99.90;;;;;;5004999;28;20507;-71
2022/02/26 08:22:11;;;;;;;55.90;40.73;;;1.50;99.90;;;;;;5004668;28;20495;-71
2022/02/26 08:24:39;;;;;;;50.60;41.50;;;1.60;99.90;;;;;;5006707;28;20885;-71
2022/02/26 08:27:06;;;;;;;81.03;40.23;;;1.70;99.90;;;;;;5008264;28;20493;-71
2022/02/26 08:29:33;;;;;;;46.87;41.13;;;1.90;99.90;;;;;;5006054;28;20465;-71
2022/02/26 08:32:00;;;;;;;57.70;42.40;;;2.10;99.90;;;;;;5007056;28;20448;-71
2022/02/26 08:34:27;;;;;;;47.33;39.60;;;2.20;99.90;;;;;;5007074;28;20501;-71
2022/02/26 08:36:54;;;;;;;43.40;38.67;;;2.30;99.90;;;;;;5006841;28;21171;-71
2022/02/26 08:39:24;;;;;;;43.33;38.17;;;2.50;99.90;;;;;;5017554;28;20461;-71
2022/02/26 08:41:52;;;;;;;56.63;40.90;;;2.60;99.90;;;;;;5043308;28;20558;-70
2022/02/26 08:44:19;;;;;;;56.63;44.07;;;2.70;99.90;;;;;;5011816;28;20456;-71
2022/02/26 08:46:46;;;;;;;51.63;40.40;;;2.90;99.90;;;;;;5006373;28;20538;-70
2022/02/26 08:49:13;;;;;;;53.10;39.80;;;3.00;99.90;;;;;;5006569;28;20531;-71
2022/02/26 08:51:40;;;;;;;48.77;38.87;;;3.10;99.90;;;;;;5006298;28;20464;-71
2022/02/26 08:54:06;;;;;;;51.80;39.87;;;3.40;99.90;;;;;;5006546;28;21113;-70
2022/02/26 08:56:33;;;;;;;45.10;37.87;;;3.50;99.90;;;;;;5007318;28;20466;-72
2022/02/26 08:59:02;;;;;;;41.57;34.07;;;3.60;99.90;;;;;;5006110;28;20474;-72
2022/02/26 09:01:29;;;;;;;56.37;35.60;;;3.70;99.90;;;;;;5006836;28;20465;-71
2022/02/26 09:03:57;;;;;;;42.83;36.83;;;4.00;99.90;;;;;;5007015;28;20456;-70
2022/02/26 09:06:24;;;;;;;41.00;34.60;;;4.20;99.90;;;;;;5006946;28;20766;-72
2022/02/26 09:08:52;;;;;;;53.00;39.70;;;4.40;99.90;;;;;;5006915;28;20500;-71
2022/02/26 09:11:18;;;;;;;74.57;41.03;;;4.40;99.90;;;;;;5005799;28;20562;-72
2022/02/26 09:13:46;;;;;;;73.83;44.57;;;4.40;99.90;;;;;;5003963;28;20540;-72
2022/02/26 09:16:16;;;;;;;80.13;47.47;;;4.40;99.90;;;;;;5024301;28;20596;-70
2022/02/26 09:18:43;;;;;;;70.30;44.50;;;4.40;99.90;;;;;;5006251;28;20473;-72
2022/02/26 09:21:10;;;;;;;60.27;40.97;;;4.30;99.90;;;;;;5006866;28;20968;-71
2022/02/26 09:23:38;;;;;;;74.20;41.00;;;4.10;99.90;;;;;;5006253;28;20449;-70
2022/02/26 09:26:05;;;;;;;81.93;43.03;;;4.30;99.90;;;;;;5007101;28;20473;-71
2022/02/26 09:28:33;;;;;;;80.13;43.43;;;4.20;99.90;;;;;;5005929;28;20604;-70
2022/02/26 09:31:00;;;;;;;68.03;42.13;;;4.20;99.90;;;;;;5006454;28;20476;-71
2022/02/26 09:33:30;;;;;;;66.33;40.03;;;3.90;99.90;;;;;;5006210;28;20461;-70
2022/02/26 09:35:57;;;;;;;77.33;40.90;;;4.00;99.90;;;;;;5003449;28;20465;-69
2022/02/26 09:38:24;;;;;;;77.73;43.10;;;4.10;99.90;;;;;;5004104;28;20466;-71
2022/02/26 09:40:53;;;;;;;104.67;41.67;;;4.20;99.90;;;;;;5005522;28;20472;-70
2022/02/26 09:43:20;;;;;;;78.87;41.70;;;4.30;99.90;;;;;;5006373;28;20476;-71
2022/02/26 09:45:47;;;;;;;78.60;43.83;;;4.50;99.90;;;;;;5024834;28;20456;-71
2022/02/26 09:48:14;;;;;;;84.73;40.03;;;4.40;99.90;;;;;;5034938;28;20479;-70
2022/02/26 09:50:42;;;;;;;76.33;41.30;;;4.70;99.90;;;;;;5040906;28;20560;-72
2022/02/26 09:53:09;;;;;;;65.37;37.87;;;4.70;99.90;;;;;;5029907;28;20905;-69
2022/02/26 09:55:37;;;;;;;73.93;37.67;;;5.10;99.90;;;;;;5040201;28;20876;-70
2022/02/26 09:58:04;;;;;;;78.97;36.70;;;5.40;99.90;;;;;;5037922;28;20523;-71
2022/02/26 10:00:31;;;;;;;73.60;38.17;;;5.30;99.90;;;;;;5016684;28;20550;-70
2022/02/26 10:02:59;;;;;;;69.47;41.70;;;5.50;99.90;;;;;;5006944;28;20570;-70
2022/02/26 10:05:26;;;;;;;69.67;36.33;;;5.60;99.90;;;;;;5006690;28;20834;-72
2022/02/26 10:07:54;;;;;;;65.13;37.87;;;5.60;99.90;;;;;;5007569;28;20503;-73
2022/02/26 10:10:23;;;;;;;73.43;36.40;;;5.90;99.90;;;;;;5006764;28;21016;-72
2022/02/26 10:12:52;;;;;;;63.33;38.20;;;6.10;99.90;;;;;;5007037;28;20481;-72
2022/02/26 10:15:25;;;;;;;61.43;35.57;;;6.20;99.90;;;;;;5006929;28;20814;-70
2022/02/26 10:18:03;;;;;;;72.13;36.40;;;6.40;99.90;;;;;;5006422;28;20471;-71
2022/02/26 10:20:31;;;;;;;43.37;31.23;;;6.60;99.90;;;;;;5006187;28;20463;-71
2022/02/26 10:23:00;;;;;;;47.07;31.63;;;6.70;99.90;;;;;;5006461;28;20494;-71
2022/02/26 10:25:29;;;;;;;55.27;36.07;;;6.60;99.90;;;;;;5007739;28;21251;-71
2022/02/26 10:27:58;;;;;;;47.20;34.60;;;6.60;99.90;;;;;;5005844;28;21003;-72
2022/02/26 10:30:26;;;;;;;60.80;37.87;;;6.40;99.90;;;;;;5006288;28;20467;-71
2022/02/26 10:33:11;;;;;;;69.57;37.60;;;6.40;99.90;;;;;;5007268;28;20482;-72
2022/02/26 10:35:44;;;;;;;65.27;38.53;;;6.70;99.90;;;;;;5006836;28;20495;-71
2022/02/26 10:38:15;;;;;;;53.23;37.20;;;7.20;99.90;;;;;;5006989;28;20465;-71
2022/02/26 10:40:54;;;;;;;56.83;34.53;;;7.60;99.90;;;;;;5006365;28;20553;-69
2022/02/26 10:43:47;;;;;;;57.13;37.57;;;7.70;99.90;;;;;;5006921;28;20970;-72
2022/02/26 10:46:21;;;;;;;68.73;37.20;;;7.80;99.90;;;;;;5024136;28;20517;-72
2022/02/26 10:48:50;;;;;;;54.27;36.90;;;7.80;99.90;;;;;;5034939;28;20508;-72
2022/02/26 10:51:18;;;;;;;57.60;33.70;;;8.00;99.90;;;;;;5038256;28;20487;-70
2022/02/26 10:53:47;;;;;;;51.03;29.67;;;7.90;99.90;;;;;;5006035;28;20494;-71
2022/02/26 10:56:15;;;;;;;60.83;35.13;;;8.10;99.90;;;;;;5006550;28;20497;-71
2022/02/26 10:58:43;;;;;;;53.50;33.53;;;8.10;99.90;;;;;;5006245;28;21464;-71
2022/02/26 11:01:12;;;;;;;57.17;30.80;;;7.90;99.90;;;;;;5006412;28;20986;-72
2022/02/26 11:03:40;;;;;;;40.60;30.93;;;7.80;99.90;;;;;;5031254;28;21239;-71
2022/02/26 11:06:09;;;;;;;51.90;27.63;;;8.20;99.90;;;;;;5035246;28;20474;-71
2022/02/26 11:08:37;;;;;;;37.43;25.93;;;9.00;99.90;;;;;;5005739;28;20496;-72
2022/02/26 11:11:07;;;;;;;44.93;29.60;;;9.50;99.90;;;;;;5004156;28;21342;-71
2022/02/26 11:13:35;;;;;;;39.10;28.43;;;10.30;99.90;;;;;;5005575;28;20472;-69
2022/02/26 11:16:05;;;;;;;35.03;25.00;;;11.00;99.90;;;;;;5006211;28;20461;-71
2022/02/26 11:18:40;;;;;;;45.90;26.30;;;11.30;99.90;;;;;;5005775;28;20457;-71
2022/02/26 11:21:09;;;;;;;57.93;29.93;;;10.70;99.90;;;;;;5004515;28;20488;-71
2022/02/26 11:23:36;;;;;;;42.67;25.87;;;10.90;99.90;;;;;;5006368;28;20484;-72
2022/02/26 11:26:07;;;;;;;44.63;27.60;;;10.80;99.90;;;;;;5005911;28;21555;-71
2022/02/26 11:28:35;;;;;;;47.70;27.83;;;11.00;99.90;;;;;;5005405;28;20496;-71
2022/02/26 11:31:10;;;;;;;43.00;27.70;;;11.10;99.90;;;;;;5006220;28;20536;-70
2022/02/26 11:33:37;;;;;;;36.80;25.37;;;11.70;99.90;;;;;;5006541;28;20861;-69
2022/02/26 11:36:06;;;;;;;44.07;26.40;;;11.70;99.90;;;;;;5004877;28;20491;-70
2022/02/26 11:38:35;;;;;;;39.77;24.73;;;11.90;99.90;;;;;;5004734;28;20469;-69
2022/02/26 11:41:23;;;;;;;29.10;23.90;;;12.50;99.90;;;;;;5003299;28;20473;-70
2022/02/26 11:43:52;;;;;;;34.00;23.07;;;12.70;99.90;;;;;;5005051;28;20902;-71
2022/02/26 11:46:25;;;;;;;31.97;24.33;;;12.60;99.90;;;;;;5005555;28;20484;-70
2022/02/26 11:48:52;;;;;;;34.43;24.67;;;12.10;99.90;;;;;;5037640;28;21008;-70
2022/02/26 11:51:20;;;;;;;34.57;23.40;;;12.20;99.90;;;;;;5037958;28;20491;-71
2022/02/26 11:53:48;;;;;;;31.20;22.70;;;12.60;99.90;;;;;;5025204;28;20988;-71
2022/02/26 11:56:15;;;;;;;38.13;23.10;;;13.20;99.90;;;;;;5005027;28;20469;-72
2022/02/26 11:58:44;;;;;;;29.30;21.93;;;13.20;99.90;;;;;;5003944;28;20473;-72
2022/02/26 12:01:13;;;;;;;36.83;22.83;;;13.60;99.90;;;;;;5004930;28;20467;-72
2022/02/26 12:03:50;;;;;;;45.77;23.07;;;14.10;99.90;;;;;;5003946;28;20842;-70
2022/02/26 12:06:32;;;;;;;33.93;25.10;;;14.30;99.90;;;;;;5004526;28;20869;-71
2022/02/26 12:09:05;;;;;;;31.80;22.23;;;14.60;99.90;;;;;;5004522;28;20481;-71
2022/02/26 12:11:38;;;;;;;28.40;22.40;;;14.80;99.90;;;;;;5004684;28;20473;-72
2022/02/26 12:14:08;;;;;;;26.63;22.47;;;14.60;99.90;;;;;;5004542;28;20460;-71
2022/02/26 12:16:36;;;;;;;26.40;21.70;;;14.20;99.90;;;;;;5005457;28;20449;-72
2022/02/26 12:19:08;;;;;;;32.37;21.70;;;14.10;99.90;;;;;;5004402;28;20837;-71
2022/02/26 12:21:37;;;;;;;25.63;20.70;;;14.60;99.90;;;;;;5002054;28;21038;-70
2022/02/26 12:24:06;;;;;;;31.67;22.67;;;14.70;99.90;;;;;;5004710;28;20471;-70
2022/02/26 12:26:43;;;;;;;28.17;21.80;;;14.60;99.90;;;;;;5004786;28;20464;-70
2022/02/26 12:29:22;;;;;;;28.90;22.90;;;14.30;99.90;;;;;;5003151;28;20522;-72
2022/02/26 12:31:56;;;;;;;35.43;22.57;;;13.00;99.90;;;;;;5004027;28;20531;-72
2022/02/26 12:34:23;;;;;;;37.63;23.43;;;11.60;99.90;;;;;;5007410;28;20467;-69
2022/02/26 12:37:09;;;;;;;29.90;23.10;;;11.10;99.90;;;;;;5006108;28;20915;-72
2022/02/26 12:39:38;;;;;;;39.47;24.27;;;11.20;99.90;;;;;;5006361;28;20471;-70